createdAt,value
2023-03-22T00:00:00.442Z,99406.91
2023-03-22T00:02:27.606Z,99430.56
2023-03-22T00:04:54.700Z,99428.00
2023-03-22T00:07:21.852Z,99428.69
2023-03-22T00:09:48.816Z,99432.97
2023-03-22T00:12:15.826Z,99419.81
2023-03-22T00:14:43.031Z,99427.72
2023-03-22T00:17:10.112Z,99432.13
2023-03-22T00:19:37.539Z,99428.72
2023-03-22T00:22:06.414Z,99412.13
2023-03-22T00:24:33.484Z,99384.16
2023-03-22T00:27:01.137Z,99428.56
2023-03-22T00:29:28.334Z,99427.63
2023-03-22T00:31:56.410Z,99424.09
2023-03-22T00:34:23.624Z,99438.81
2023-03-22T00:36:52.035Z,99434.44
2023-03-22T00:39:20.042Z,99450.06
2023-03-22T00:41:47.878Z,99448.31
2023-03-22T00:44:14.833Z,99451.75
2023-03-22T00:46:41.757Z,99461.22
2023-03-22T00:49:08.994Z,99463.75
2023-03-22T00:51:36.068Z,99451.47
2023-03-22T00:54:03.137Z,99437.53
2023-03-22T00:56:30.204Z,99457.63
2023-03-22T00:59:04.616Z,99462.72
2023-03-22T01:01:31.722Z,99457.28
2023-03-22T01:03:58.988Z,99451.22
2023-03-22T01:06:26.002Z,99469.53
2023-03-22T01:08:55.341Z,99467.03
2023-03-22T01:11:22.310Z,99468.66
2023-03-22T01:13:50.524Z,99440.63
2023-03-22T01:16:18.528Z,99456.44
2023-03-22T01:18:45.604Z,99456.16
2023-03-22T01:21:13.132Z,99479.66
2023-03-22T01:23:40.670Z,99473.47
2023-03-22T01:26:07.896Z,99491.53
2023-03-22T01:28:34.906Z,99474.88
2023-03-22T01:31:02.935Z,99480.13
2023-03-22T01:33:30.713Z,99494.06
2023-03-22T01:35:58.277Z,99499.13
2023-03-22T01:38:25.827Z,99483.41
2023-03-22T01:40:59.082Z,99505.09
2023-03-22T01:43:28.479Z,99472.69
2023-03-22T01:45:57.695Z,99512.88
2023-03-22T01:48:46.319Z,99525.91
2023-03-22T01:51:25.398Z,99513.53
2023-03-22T01:54:13.740Z,99517.69
2023-03-22T01:56:42.076Z,99520.16
2023-03-22T01:59:15.818Z,99540.13
2023-03-22T02:02:10.980Z,99545.19
2023-03-22T02:04:39.427Z,99531.31
2023-03-22T02:07:15.691Z,99540.09
2023-03-22T02:09:46.714Z,99537.41
2023-03-22T02:12:32.941Z,99535.84
2023-03-22T02:15:09.082Z,99540.09
2023-03-22T02:18:41.762Z,99500.81
2023-03-22T02:21:21.667Z,99546.03
2023-03-22T02:23:58.197Z,99546.88
2023-03-22T02:26:53.498Z,99548.72
2023-03-22T02:30:04.626Z,99547.03
2023-03-22T02:32:43.767Z,99555.78
2023-03-22T02:35:26.065Z,99563.53
2023-03-22T02:38:14.620Z,99562.56
2023-03-22T02:40:58.605Z,99553.84
2023-03-22T02:43:41.728Z,99552.97
2023-03-22T02:46:27.506Z,99554.53
2023-03-22T02:49:16.704Z,99560.75
2023-03-22T02:52:01.610Z,99570.31
2023-03-22T02:54:44.685Z,99581.63
2023-03-22T02:57:29.796Z,99588.53
2023-03-22T02:59:58.560Z,99553.47
2023-03-22T03:02:28.281Z,99587.59
2023-03-22T03:04:57.153Z,99569.25
2023-03-22T03:07:28.155Z,99559.69
2023-03-22T03:09:55.669Z,99591.88
2023-03-22T03:12:26.077Z,99594.38
2023-03-22T03:14:55.341Z,99600.31
2023-03-22T03:17:42.006Z,99578.63
2023-03-22T03:20:30.383Z,99598.81
2023-03-22T03:23:22.663Z,99602.28
2023-03-22T03:26:12.425Z,99610.13
2023-03-22T03:28:49.945Z,99597.91
2023-03-22T03:31:46.636Z,99550.59
2023-03-22T03:34:24.696Z,99618.53
2023-03-22T03:37:00.317Z,99602.69
2023-03-22T03:39:32.450Z,99623.53
2023-03-22T03:42:02.670Z,99628.69
2023-03-22T03:44:31.492Z,99633.81
2023-03-22T03:46:59.857Z,99638.00
2023-03-22T03:49:27.383Z,99647.41
2023-03-22T03:51:56.230Z,99643.09
2023-03-22T03:54:24.066Z,99644.78
2023-03-22T03:56:51.078Z,99650.81
2023-03-22T03:59:19.115Z,99661.84
2023-03-22T04:01:52.542Z,99664.19
2023-03-22T04:04:30.045Z,99662.31
2023-03-22T04:07:05.743Z,99655.16
2023-03-22T04:09:37.510Z,99676.69
2023-03-22T04:12:16.532Z,99673.84
2023-03-22T04:14:52.395Z,99680.53
2023-03-22T04:17:24.560Z,99686.28
2023-03-22T04:19:53.723Z,99655.56
2023-03-22T04:22:20.995Z,99679.72
2023-03-22T04:24:50.288Z,99672.56
2023-03-22T04:27:22.391Z,99700.22
2023-03-22T04:29:56.163Z,99708.69
2023-03-22T04:32:43.292Z,99695.38
2023-03-22T04:35:11.493Z,99710.69
2023-03-22T04:37:38.484Z,99701.88
2023-03-22T04:40:20.951Z,99697.44
2023-03-22T04:43:04.222Z,99721.91
2023-03-22T04:45:47.459Z,99722.06
2023-03-22T04:48:22.292Z,99716.75
2023-03-22T04:50:53.468Z,99724.44
2023-03-22T04:53:27.492Z,99733.00
2023-03-22T04:55:59.115Z,99740.75
2023-03-22T04:58:28.245Z,99734.53
2023-03-22T05:00:55.300Z,99747.53
2023-03-22T05:03:23.640Z,99746.63
2023-03-22T05:05:53.514Z,99744.78
2023-03-22T05:08:26.935Z,99731.47
2023-03-22T05:10:59.152Z,99740.94
2023-03-22T05:13:27.966Z,99750.38
2023-03-22T05:15:55.461Z,99755.56
2023-03-22T05:18:30.457Z,99741.34
2023-03-22T05:20:59.773Z,99748.63
2023-03-22T05:23:27.360Z,99766.78
2023-03-22T05:25:58.387Z,99766.69
2023-03-22T05:28:28.783Z,99728.22
2023-03-22T05:31:17.236Z,99781.56
2023-03-22T05:33:54.384Z,99783.50
2023-03-22T05:36:24.213Z,99786.97
2023-03-22T05:39:08.246Z,99790.59
2023-03-22T05:41:36.762Z,99798.28
2023-03-22T05:44:05.349Z,99798.09
2023-03-22T05:46:33.730Z,99795.31
2023-03-22T05:49:39.191Z,99783.78
2023-03-22T05:52:07.717Z,99814.44
2023-03-22T05:54:47.645Z,99730.28
2023-03-22T05:57:14.694Z,99816.88
2023-03-22T05:59:41.761Z,99822.97
2023-03-22T06:02:11.931Z,99818.72
2023-03-22T06:04:41.690Z,99822.97
2023-03-22T06:07:14.344Z,99820.19
2023-03-22T06:09:53.723Z,99827.88
2023-03-22T06:12:28.883Z,99821.66
2023-03-22T06:15:03.753Z,99821.41
2023-03-22T06:17:33.717Z,99817.25
2023-03-22T06:20:00.893Z,99831.91
2023-03-22T06:22:30.624Z,99834.31
2023-03-22T06:24:57.953Z,99825.72
2023-03-22T06:27:34.804Z,99835.19
2023-03-22T06:30:01.927Z,99836.75
2023-03-22T06:32:33.398Z,99844.34
2023-03-22T06:35:00.438Z,99841.72
2023-03-22T06:37:27.436Z,99833.75
2023-03-22T06:39:55.730Z,99838.53
2023-03-22T06:42:26.177Z,99842.00
2023-03-22T06:45:04.165Z,99841.56
2023-03-22T06:47:34.140Z,99845.38
2023-03-22T06:50:01.050Z,99838.75
2023-03-22T06:52:47.466Z,99838.91
2023-03-22T06:55:14.549Z,99856.75
2023-03-22T06:57:42.069Z,99850.31
2023-03-22T07:00:10.890Z,99858.19
2023-03-22T07:02:38.034Z,99844.34
2023-03-22T07:05:25.322Z,99829.50
2023-03-22T07:07:52.327Z,99853.03
2023-03-22T07:10:19.492Z,99840.69
2023-03-22T07:12:47.289Z,99815.84
2023-03-22T07:15:17.773Z,99854.81
2023-03-22T07:18:08.626Z,99864.50
2023-03-22T07:20:38.677Z,99860.34
2023-03-22T07:23:06.922Z,99842.13
2023-03-22T07:25:41.663Z,99846.66
2023-03-22T07:28:30.909Z,99870.75
2023-03-22T07:31:11.655Z,99865.13
2023-03-22T07:33:59.417Z,99870.75
2023-03-22T07:36:30.075Z,99851.41
2023-03-22T07:38:57.288Z,99845.34
2023-03-22T07:41:30.391Z,99869.56
2023-03-22T07:44:18.187Z,99864.72
2023-03-22T07:47:22.144Z,99872.75
2023-03-22T07:50:14.409Z,99855.84
2023-03-22T07:52:43.518Z,99870.84
2023-03-22T07:55:13.435Z,99857.00
2023-03-22T07:57:41.350Z,99865.88
2023-03-22T08:00:10.596Z,99853.72
2023-03-22T08:02:46.793Z,99863.25
2023-03-22T08:05:30.542Z,99874.47
2023-03-22T08:08:01.436Z,99861.94
2023-03-22T08:10:28.546Z,99866.97
2023-03-22T08:12:55.876Z,99879.00
2023-03-22T08:15:26.206Z,99873.97
2023-03-22T08:17:57.983Z,99870.94
2023-03-22T08:20:35.585Z,99875.44
2023-03-22T08:23:08.154Z,99858.03
2023-03-22T08:26:04.939Z,99871.94
2023-03-22T08:28:32.974Z,99859.69
2023-03-22T08:31:00.008Z,99867.50
2023-03-22T08:33:28.725Z,99881.97
2023-03-22T08:36:12.242Z,99873.41
2023-03-22T08:38:46.216Z,99872.53
2023-03-22T08:41:16.303Z,99883.13
2023-03-22T08:43:43.517Z,99880.53
2023-03-22T08:46:10.961Z,99881.78
2023-03-22T08:48:38.658Z,99873.72
2023-03-22T08:51:22.633Z,99866.69
2023-03-22T08:54:04.092Z,99868.50
2023-03-22T08:56:50.431Z,99868.13
2023-03-22T08:59:39.966Z,99874.44
2023-03-22T09:02:25.155Z,99861.50
2023-03-22T09:04:53.544Z,99810.97
2023-03-22T09:07:20.983Z,99869.28
2023-03-22T09:09:56.793Z,99858.84
2023-03-22T09:12:26.296Z,99874.59
2023-03-22T09:14:55.802Z,99871.00
2023-03-22T09:17:25.326Z,99875.00
2023-03-22T09:20:02.759Z,99866.13
2023-03-22T09:22:37.399Z,99864.03
2023-03-22T09:25:04.917Z,99857.97
2023-03-22T09:27:32.995Z,99859.78
2023-03-22T09:30:00.334Z,99871.75
2023-03-22T09:32:27.425Z,99867.06
2023-03-22T09:34:59.761Z,99868.91
2023-03-22T09:37:37.387Z,99827.97
2023-03-22T09:40:09.954Z,99877.28
2023-03-22T09:42:40.949Z,99878.47
2023-03-22T09:45:27.841Z,99843.22
2023-03-22T09:47:56.643Z,99819.63
2023-03-22T09:50:28.761Z,99870.31
2023-03-22T09:52:56.294Z,99880.09
2023-03-22T09:55:46.098Z,99888.78
2023-03-22T09:58:30.753Z,99872.91
2023-03-22T10:01:01.377Z,99890.31
2023-03-22T10:03:35.901Z,99888.38
2023-03-22T10:06:08.653Z,99880.41
2023-03-22T10:09:06.929Z,99873.75
2023-03-22T10:12:05.094Z,99872.81
2023-03-22T10:14:45.521Z,99870.84
2023-03-22T10:17:16.734Z,99863.44
2023-03-22T10:19:58.803Z,99870.78
2023-03-22T10:22:31.512Z,99859.16
2023-03-22T10:25:01.490Z,99873.22
2023-03-22T10:27:31.772Z,99863.44
2023-03-22T10:30:08.700Z,99878.09
2023-03-22T10:33:03.403Z,99883.34
2023-03-22T10:35:31.943Z,99887.84
2023-03-22T10:38:02.507Z,99892.41
2023-03-22T10:40:33.961Z,99877.88
2023-03-22T10:43:10.593Z,99871.97
2023-03-22T10:45:38.222Z,99878.91
2023-03-22T10:48:25.788Z,99877.03
2023-03-22T10:50:53.712Z,99886.44
2023-03-22T10:53:20.672Z,99834.56
2023-03-22T10:55:47.635Z,99885.75
2023-03-22T10:58:20.900Z,99881.16
2023-03-22T11:00:49.380Z,99886.09
2023-03-22T11:03:37.452Z,99877.06
2023-03-22T11:06:07.569Z,99879.97
2023-03-22T11:08:53.963Z,99887.59
2023-03-22T11:11:31.136Z,99873.56
2023-03-22T11:14:01.199Z,99878.06
2023-03-22T11:16:30.653Z,99876.06
2023-03-22T11:19:01.400Z,99861.41
2023-03-22T11:21:32.328Z,99879.88
2023-03-22T11:24:06.955Z,99872.13
2023-03-22T11:26:40.532Z,99871.22
2023-03-22T11:29:14.053Z,99835.41
2023-03-22T11:31:57.411Z,99873.66
2023-03-22T11:34:27.986Z,99870.84
2023-03-22T11:36:57.181Z,99882.66
2023-03-22T11:39:28.511Z,99876.31
2023-03-22T11:42:06.484Z,99876.03
2023-03-22T11:44:35.693Z,99875.84
2023-03-22T11:47:04.620Z,99866.97
2023-03-22T11:49:45.668Z,99871.25
2023-03-22T11:52:18.080Z,99875.50
2023-03-22T11:54:46.540Z,99877.19
2023-03-22T11:57:23.427Z,99873.75
2023-03-22T12:00:14.255Z,99874.47
2023-03-22T12:03:00.744Z,99878.69
2023-03-22T12:05:33.946Z,99873.47
2023-03-22T12:08:00.869Z,99875.09
2023-03-22T12:10:52.643Z,99874.31
2023-03-22T12:13:25.748Z,99869.03
2023-03-22T12:16:01.035Z,99853.38
2023-03-22T12:18:39.682Z,99876.09
2023-03-22T12:21:09.541Z,99875.13
2023-03-22T12:23:37.117Z,99866.44
2023-03-22T12:26:18.188Z,99866.56
2023-03-22T12:29:04.207Z,99866.63
2023-03-22T12:31:50.366Z,99854.50
2023-03-22T12:34:25.927Z,99852.78
2023-03-22T12:36:57.356Z,99868.69
2023-03-22T12:39:27.107Z,99857.47
2023-03-22T12:41:58.074Z,99857.69
2023-03-22T12:44:31.933Z,99856.94
2023-03-22T12:47:05.494Z,99856.19
2023-03-22T12:49:49.070Z,99845.09
2023-03-22T12:52:22.607Z,99852.91
2023-03-22T12:54:52.194Z,99853.88
2023-03-22T12:57:19.970Z,99849.63
2023-03-22T12:59:51.700Z,99848.72
2023-03-22T13:02:35.479Z,99840.13
2023-03-22T13:05:06.839Z,99829.41
2023-03-22T13:07:39.848Z,99847.50
2023-03-22T13:10:40.484Z,99849.19
2023-03-22T13:13:07.649Z,99840.06
2023-03-22T13:15:42.248Z,99837.25
2023-03-22T13:18:45.433Z,99843.25
2023-03-22T13:21:19.601Z,99845.59
2023-03-22T13:24:01.776Z,99853.22
2023-03-22T13:26:53.114Z,99804.22
2023-03-22T13:29:27.118Z,99845.19
2023-03-22T13:32:03.664Z,99852.69
2023-03-22T13:34:44.555Z,99827.19
2023-03-22T13:37:30.329Z,99847.09
2023-03-22T13:40:02.262Z,99840.03
2023-03-22T13:42:38.898Z,99829.50
2023-03-22T13:45:10.026Z,99833.97
2023-03-22T13:47:47.077Z,99833.22
2023-03-22T13:50:13.967Z,99837.69
2023-03-22T13:52:44.321Z,99836.56
2023-03-22T13:55:34.249Z,99836.53
2023-03-22T13:58:04.209Z,99835.53
2023-03-22T14:00:31.496Z,99832.13
2023-03-22T14:03:04.085Z,99813.81
2023-03-22T14:05:36.597Z,99801.47
2023-03-22T14:08:04.445Z,99807.47
2023-03-22T14:10:44.449Z,99822.34
2023-03-22T14:13:32.476Z,99825.00
2023-03-22T14:16:08.652Z,99820.63
2023-03-22T14:18:39.672Z,99822.31
2023-03-22T14:21:19.338Z,99821.41
